Terminal Aerodrome Forecast
Issued by NWS

Home | Current Version | Previous Version | Graphics & Text | Print | Product List | Glossary Off
Versions: 1 2 3 4 5 6 7 8 9 10 11 12 13 14 15 16 17 18 19 20 21 22 23 24 25 26 27 28 29 30 31 32 33 34 35 36

134
FTUS43 KDDC 090520
TAFHYS
TAF
KHYS 090520Z 0906/1006 30012KT P6SM SCT250
     FM091700 33017G25KT P6SM SCT250
     FM092300 34012KT P6SM SCT250
     FM100300 30006KT P6SM SCT250=

USA.gov is the U.S. government's official web portal to all federal, state and local government web resources and services.